sensor_id;sensor_type;location;lat;lon;timestamp;temperature;humidity
1405;DHT22;697;51.114;6.542;2023-01-05T00:00:08;12.60;99.40
1405;DHT22;697;51.114;6.542;2023-01-05T00:02:37;12.60;99.40
1405;DHT22;697;51.114;6.542;2023-01-05T00:05:04;12.60;99.40
1405;DHT22;697;51.114;6.542;2023-01-05T00:07:31;12.60;99.50
1405;DHT22;697;51.114;6.542;2023-01-05T00:09:57;12.50;99.50
1405;DHT22;697;51.114;6.542;2023-01-05T00:12:24;12.50;99.60
1405;DHT22;697;51.114;6.542;2023-01-05T00:15:09;12.50;99.50
1405;DHT22;697;51.114;6.542;2023-01-05T00:17:54;12.50;99.40
1405;DHT22;697;51.114;6.542;2023-01-05T00:20:38;12.50;99.90
1405;DHT22;697;51.114;6.542;2023-01-05T00:23:23;12.50;99.40
1405;DHT22;697;51.114;6.542;2023-01-05T00:25:49;12.50;99.40
1405;DHT22;697;51.114;6.542;2023-01-05T00:28:16;12.50;99.40
1405;DHT22;697;51.114;6.542;2023-01-05T00:30:45;12.50;99.40
1405;DHT22;697;51.114;6.542;2023-01-05T00:33:14;12.40;99.30
1405;DHT22;697;51.114;6.542;2023-01-05T00:35:42;12.50;99.40
1405;DHT22;697;51.114;6.542;2023-01-05T00:38:08;12.50;99.20
1405;DHT22;697;51.114;6.542;2023-01-05T00:40:35;12.50;99.20
1405;DHT22;697;51.114;6.542;2023-01-05T00:43:02;12.50;99.30
1405;DHT22;697;51.114;6.542;2023-01-05T00:45:29;12.50;99.30
1405;DHT22;697;51.114;6.542;2023-01-05T00:47:56;12.40;99.30
1405;DHT22;697;51.114;6.542;2023-01-05T00:50:24;12.40;99.40
1405;DHT22;697;51.114;6.542;2023-01-05T00:52:51;12.40;99.40
1405;DHT22;697;51.114;6.542;2023-01-05T00:55:17;12.40;99.30
1405;DHT22;697;51.114;6.542;2023-01-05T00:57:44;12.40;99.40
1405;DHT22;697;51.114;6.542;2023-01-05T01:00:16;12.50;99.40
1405;DHT22;697;51.114;6.542;2023-01-05T01:02:44;12.40;99.30
1405;DHT22;697;51.114;6.542;2023-01-05T01:05:11;12.40;99.40
1405;DHT22;697;51.114;6.542;2023-01-05T01:07:39;12.50;99.40
1405;DHT22;697;51.114;6.542;2023-01-05T01:10:07;12.50;99.50
1405;DHT22;697;51.114;6.542;2023-01-05T01:12:34;12.40;99.40
1405;DHT22;697;51.114;6.542;2023-01-05T01:15:01;12.40;99.60
1405;DHT22;697;51.114;6.542;2023-01-05T01:17:27;12.50;99.50
1405;DHT22;697;51.114;6.542;2023-01-05T01:19:54;12.40;99.50
1405;DHT22;697;51.114;6.542;2023-01-05T01:22:21;12.40;99.70
1405;DHT22;697;51.114;6.542;2023-01-05T01:24:49;12.40;99.60
1405;DHT22;697;51.114;6.542;2023-01-05T01:27:17;12.50;99.90
1405;DHT22;697;51.114;6.542;2023-01-05T01:29:43;12.50;99.90
1405;DHT22;697;51.114;6.542;2023-01-05T01:32:10;12.40;99.90
1405;DHT22;697;51.114;6.542;2023-01-05T01:34:37;12.40;99.90
1405;DHT22;697;51.114;6.542;2023-01-05T01:37:04;12.40;99.90
1405;DHT22;697;51.114;6.542;2023-01-05T01:39:31;12.40;99.90
1405;DHT22;697;51.114;6.542;2023-01-05T01:41:59;12.30;99.90
1405;DHT22;697;51.114;6.542;2023-01-05T01:44:48;12.30;99.90
1405;DHT22;697;51.114;6.542;2023-01-05T01:47:21;12.20;99.90
1405;DHT22;697;51.114;6.542;2023-01-05T01:49:49;12.30;99.90
1405;DHT22;697;51.114;6.542;2023-01-05T01:52:17;12.30;99.90
1405;DHT22;697;51.114;6.542;2023-01-05T01:54:45;12.30;99.90
1405;DHT22;697;51.114;6.542;2023-01-05T01:57:14;12.30;99.90
1405;DHT22;697;51.114;6.542;2023-01-05T01:59:41;12.30;99.90
1405;DHT22;697;51.114;6.542;2023-01-05T02:02:10;12.20;99.90
1405;DHT22;697;51.114;6.542;2023-01-05T02:04:37;12.30;99.90
1405;DHT22;697;51.114;6.542;2023-01-05T02:07:06;12.30;99.90
1405;DHT22;697;51.114;6.542;2023-01-05T02:09:35;12.30;99.90
1405;DHT22;697;51.114;6.542;2023-01-05T02:12:08;12.20;99.90
1405;DHT22;697;51.114;6.542;2023-01-05T02:14:46;12.20;99.90
1405;DHT22;697;51.114;6.542;2023-01-05T02:17:19;12.20;99.90
1405;DHT22;697;51.114;6.542;2023-01-05T02:20:27;12.20;99.90
1405;DHT22;697;51.114;6.542;2023-01-05T02:26:39;12.10;99.90
1405;DHT22;697;51.114;6.542;2023-01-05T02:29:28;12.00;99.90
1405;DHT22;697;51.114;6.542;2023-01-05T02:32:03;12.00;99.90
1405;DHT22;697;51.114;6.542;2023-01-05T02:34:37;12.00;99.90
1405;DHT22;697;51.114;6.542;2023-01-05T02:37:11;12.00;99.90
1405;DHT22;697;51.114;6.542;2023-01-05T02:39:45;12.00;99.90
1405;DHT22;697;51.114;6.542;2023-01-05T02:42:18;12.00;99.90
1405;DHT22;697;51.114;6.542;2023-01-05T02:44:46;11.90;99.90
1405;DHT22;697;51.114;6.542;2023-01-05T02:47:36;11.90;99.90
1405;DHT22;697;51.114;6.542;2023-01-05T02:50:07;11.90;99.90
1405;DHT22;697;51.114;6.542;2023-01-05T02:52:41;11.90;99.90
1405;DHT22;697;51.114;6.542;2023-01-05T02:55:11;11.90;99.90
1405;DHT22;697;51.114;6.542;2023-01-05T02:57:43;12.00;99.90
1405;DHT22;697;51.114;6.542;2023-01-05T03:00:19;12.00;99.90
1405;DHT22;697;51.114;6.542;2023-01-05T03:02:52;12.00;99.90
1405;DHT22;697;51.114;6.542;2023-01-05T03:05:24;12.00;99.90
1405;DHT22;697;51.114;6.542;2023-01-05T03:07:52;12.00;99.90
1405;DHT22;697;51.114;6.542;2023-01-05T03:10:34;12.00;99.90
1405;DHT22;697;51.114;6.542;2023-01-05T03:13:20;12.00;99.90
1405;DHT22;697;51.114;6.542;2023-01-05T03:16:05;12.00;99.90
1405;DHT22;697;51.114;6.542;2023-01-05T03:18:34;11.90;99.90
1405;DHT22;697;51.114;6.542;2023-01-05T03:21:24;11.90;99.90
1405;DHT22;697;51.114;6.542;2023-01-05T03:23:51;11.90;99.90
1405;DHT22;697;51.114;6.542;2023-01-05T03:26:37;11.90;99.90
1405;DHT22;697;51.114;6.542;2023-01-05T03:29:22;11.80;99.90
1405;DHT22;697;51.114;6.542;2023-01-05T03:32:08;11.80;99.90
1405;DHT22;697;51.114;6.542;2023-01-05T03:34:59;11.80;99.90
1405;DHT22;697;51.114;6.542;2023-01-05T03:37:48;11.80;99.90
1405;DHT22;697;51.114;6.542;2023-01-05T03:40:20;11.90;99.90
1405;DHT22;697;51.114;6.542;2023-01-05T03:42:48;11.90;99.90
1405;DHT22;697;51.114;6.542;2023-01-05T03:45:15;11.80;99.90
1405;DHT22;697;51.114;6.542;2023-01-05T03:47:43;11.90;99.90
1405;DHT22;697;51.114;6.542;2023-01-05T03:50:11;11.90;99.90
1405;DHT22;697;51.114;6.542;2023-01-05T03:52:38;11.90;99.90
1405;DHT22;697;51.114;6.542;2023-01-05T03:55:05;11.80;99.90
1405;DHT22;697;51.114;6.542;2023-01-05T03:57:32;11.90;99.90
1405;DHT22;697;51.114;6.542;2023-01-05T03:59:59;11.90;99.90
1405;DHT22;697;51.114;6.542;2023-01-05T04:02:25;11.80;99.90
1405;DHT22;697;51.114;6.542;2023-01-05T04:04:52;11.70;99.90
1405;DHT22;697;51.114;6.542;2023-01-05T04:07:20;11.70;99.90
1405;DHT22;697;51.114;6.542;2023-01-05T04:09:47;11.70;99.90
1405;DHT22;697;51.114;6.542;2023-01-05T04:12:13;11.60;99.90
1405;DHT22;697;51.114;6.542;2023-01-05T04:14:40;11.60;99.90
1405;DHT22;697;51.114;6.542;2023-01-05T04:17:07;11.70;99.90
1405;DHT22;697;51.114;6.542;2023-01-05T04:19:33;11.70;99.90
1405;DHT22;697;51.114;6.542;2023-01-05T04:22:00;11.70;99.90
1405;DHT22;697;51.114;6.542;2023-01-05T04:24:28;11.70;99.90
1405;DHT22;697;51.114;6.542;2023-01-05T04:26:55;11.60;99.90
1405;DHT22;697;51.114;6.542;2023-01-05T04:29:21;11.60;99.90
1405;DHT22;697;51.114;6.542;2023-01-05T04:31:48;11.50;99.90
1405;DHT22;697;51.114;6.542;2023-01-05T04:34:15;11.40;99.90
1405;DHT22;697;51.114;6.542;2023-01-05T04:36:41;11.40;99.90
1405;DHT22;697;51.114;6.542;2023-01-05T04:39:08;11.30;99.90
1405;DHT22;697;51.114;6.542;2023-01-05T04:41:36;11.30;99.90
1405;DHT22;697;51.114;6.542;2023-01-05T04:44:03;11.40;99.90
1405;DHT22;697;51.114;6.542;2023-01-05T04:46:30;11.40;99.90
1405;DHT22;697;51.114;6.542;2023-01-05T04:48:57;11.40;99.90
1405;DHT22;697;51.114;6.542;2023-01-05T04:51:24;11.40;99.90
1405;DHT22;697;51.114;6.542;2023-01-05T04:53:50;11.40;99.90
1405;DHT22;697;51.114;6.542;2023-01-05T04:56:17;11.40;99.90
1405;DHT22;697;51.114;6.542;2023-01-05T04:58:45;11.30;99.90
1405;DHT22;697;51.114;6.542;2023-01-05T05:01:12;11.30;99.90
1405;DHT22;697;51.114;6.542;2023-01-05T05:03:39;11.30;99.90
1405;DHT22;697;51.114;6.542;2023-01-05T05:06:06;11.30;99.90
1405;DHT22;697;51.114;6.542;2023-01-05T05:08:32;11.40;99.90
1405;DHT22;697;51.114;6.542;2023-01-05T05:10:59;11.40;99.90
1405;DHT22;697;51.114;6.542;2023-01-05T05:13:26;11.40;99.90
1405;DHT22;697;51.114;6.542;2023-01-05T05:15:54;11.40;99.90
1405;DHT22;697;51.114;6.542;2023-01-05T05:18:21;11.40;99.90
1405;DHT22;697;51.114;6.542;2023-01-05T05:20:51;11.40;99.90
1405;DHT22;697;51.114;6.542;2023-01-05T05:23:17;11.40;99.90
1405;DHT22;697;51.114;6.542;2023-01-05T05:25:48;11.40;99.90
1405;DHT22;697;51.114;6.542;2023-01-05T05:28:15;11.40;99.90
1405;DHT22;697;51.114;6.542;2023-01-05T05:30:41;11.50;99.90
1405;DHT22;697;51.114;6.542;2023-01-05T05:33:09;11.50;99.90
1405;DHT22;697;51.114;6.542;2023-01-05T05:35:36;11.40;99.90
1405;DHT22;697;51.114;6.542;2023-01-05T05:38:03;11.50;99.90
1405;DHT22;697;51.114;6.542;2023-01-05T05:40:29;11.50;99.90
1405;DHT22;697;51.114;6.542;2023-01-05T05:42:56;11.50;99.90
1405;DHT22;697;51.114;6.542;2023-01-05T05:45:23;11.50;99.90
1405;DHT22;697;51.114;6.542;2023-01-05T05:47:49;11.50;99.90
1405;DHT22;697;51.114;6.542;2023-01-05T05:50:18;11.50;99.90
1405;DHT22;697;51.114;6.542;2023-01-05T05:52:44;11.50;99.90
1405;DHT22;697;51.114;6.542;2023-01-05T05:55:11;11.40;99.90
1405;DHT22;697;51.114;6.542;2023-01-05T05:57:38;11.50;99.90
1405;DHT22;697;51.114;6.542;2023-01-05T06:00:05;11.50;99.90
1405;DHT22;697;51.114;6.542;2023-01-05T06:02:32;11.50;99.90
1405;DHT22;697;51.114;6.542;2023-01-05T06:04:59;11.50;99.90
1405;DHT22;697;51.114;6.542;2023-01-05T06:07:27;11.50;99.90
1405;DHT22;697;51.114;6.542;2023-01-05T06:09:54;11.50;99.90
1405;DHT22;697;51.114;6.542;2023-01-05T06:12:20;11.60;99.90
1405;DHT22;697;51.114;6.542;2023-01-05T06:14:47;11.50;99.90
1405;DHT22;697;51.114;6.542;2023-01-05T06:17:13;11.50;99.90
1405;DHT22;697;51.114;6.542;2023-01-05T06:19:40;11.60;99.90
1405;DHT22;697;51.114;6.542;2023-01-05T06:22:07;11.60;99.90
1405;DHT22;697;51.114;6.542;2023-01-05T06:24:35;11.60;99.90
1405;DHT22;697;51.114;6.542;2023-01-05T06:27:02;11.50;99.90
1405;DHT22;697;51.114;6.542;2023-01-05T06:29:28;11.60;99.90
1405;DHT22;697;51.114;6.542;2023-01-05T06:31:55;11.60;99.90
1405;DHT22;697;51.114;6.542;2023-01-05T06:34:22;11.60;99.90
1405;DHT22;697;51.114;6.542;2023-01-05T06:36:48;11.60;99.90
1405;DHT22;697;51.114;6.542;2023-01-05T06:39:15;11.60;99.90
1405;DHT22;697;51.114;6.542;2023-01-05T06:41:43;11.70;99.90
1405;DHT22;697;51.114;6.542;2023-01-05T06:44:10;11.70;99.90
1405;DHT22;697;51.114;6.542;2023-01-05T06:46:37;11.70;99.90
1405;DHT22;697;51.114;6.542;2023-01-05T06:49:05;11.70;99.90
1405;DHT22;697;51.114;6.542;2023-01-05T06:51:32;11.70;99.90
1405;DHT22;697;51.114;6.542;2023-01-05T06:53:59;11.70;99.90
1405;DHT22;697;51.114;6.542;2023-01-05T06:56:26;11.70;99.90
1405;DHT22;697;51.114;6.542;2023-01-05T06:58:54;11.70;99.90
1405;DHT22;697;51.114;6.542;2023-01-05T07:01:20;11.70;99.90
1405;DHT22;697;51.114;6.542;2023-01-05T07:03:47;11.60;99.90
1405;DHT22;697;51.114;6.542;2023-01-05T07:06:14;11.60;99.90
1405;DHT22;697;51.114;6.542;2023-01-05T07:08:42;11.60;99.90
1405;DHT22;697;51.114;6.542;2023-01-05T07:11:08;11.60;99.90
1405;DHT22;697;51.114;6.542;2023-01-05T07:13:35;11.70;99.90
1405;DHT22;697;51.114;6.542;2023-01-05T07:16:03;11.70;99.90
1405;DHT22;697;51.114;6.542;2023-01-05T07:18:30;11.70;99.90
1405;DHT22;697;51.114;6.542;2023-01-05T07:20:58;11.70;99.90
1405;DHT22;697;51.114;6.542;2023-01-05T07:23:25;11.70;99.90
1405;DHT22;697;51.114;6.542;2023-01-05T07:25:51;11.70;99.90
1405;DHT22;697;51.114;6.542;2023-01-05T07:28:18;11.70;99.90
1405;DHT22;697;51.114;6.542;2023-01-05T07:30:50;11.70;99.90
1405;DHT22;697;51.114;6.542;2023-01-05T07:33:18;11.70;99.90
1405;DHT22;697;51.114;6.542;2023-01-05T07:35:44;11.70;99.90
1405;DHT22;697;51.114;6.542;2023-01-05T07:38:11;11.70;99.90
1405;DHT22;697;51.114;6.542;2023-01-05T07:40:38;11.70;99.90
1405;DHT22;697;51.114;6.542;2023-01-05T07:43:04;11.70;99.90
1405;DHT22;697;51.114;6.542;2023-01-05T07:45:31;11.70;99.90
1405;DHT22;697;51.114;6.542;2023-01-05T07:47:58;11.70;99.90
1405;DHT22;697;51.114;6.542;2023-01-05T07:50:26;11.70;99.90
1405;DHT22;697;51.114;6.542;2023-01-05T07:52:53;11.60;99.90
1405;DHT22;697;51.114;6.542;2023-01-05T07:55:20;11.60;99.90
1405;DHT22;697;51.114;6.542;2023-01-05T07:57:47;11.70;99.90
1405;DHT22;697;51.114;6.542;2023-01-05T08:00:14;11.70;99.90
1405;DHT22;697;51.114;6.542;2023-01-05T08:02:41;11.70;99.90
1405;DHT22;697;51.114;6.542;2023-01-05T08:05:08;11.60;99.90
1405;DHT22;697;51.114;6.542;2023-01-05T08:07:36;11.60;99.90
1405;DHT22;697;51.114;6.542;2023-01-05T08:10:04;11.60;99.90
1405;DHT22;697;51.114;6.542;2023-01-05T08:12:48;11.60;99.90
1405;DHT22;697;51.114;6.542;2023-01-05T08:15:32;11.70;99.90
1405;DHT22;697;51.114;6.542;2023-01-05T08:17:59;11.70;99.90
1405;DHT22;697;51.114;6.542;2023-01-05T08:20:25;11.60;99.90
1405;DHT22;697;51.114;6.542;2023-01-05T08:22:53;11.70;99.90
1405;DHT22;697;51.114;6.542;2023-01-05T08:25:20;11.70;99.90
1405;DHT22;697;51.114;6.542;2023-01-05T08:27:47;11.70;99.90
1405;DHT22;697;51.114;6.542;2023-01-05T08:30:14;11.70;99.90
1405;DHT22;697;51.114;6.542;2023-01-05T08:32:41;11.70;99.90
1405;DHT22;697;51.114;6.542;2023-01-05T08:35:08;11.80;99.90
1405;DHT22;697;51.114;6.542;2023-01-05T08:37:35;11.80;99.90
1405;DHT22;697;51.114;6.542;2023-01-05T08:40:04;11.80;99.90
1405;DHT22;697;51.114;6.542;2023-01-05T08:42:31;11.90;99.90
1405;DHT22;697;51.114;6.542;2023-01-05T08:44:58;11.90;99.90
1405;DHT22;697;51.114;6.542;2023-01-05T08:47:24;11.90;99.90
1405;DHT22;697;51.114;6.542;2023-01-05T08:49:51;11.90;99.90
1405;DHT22;697;51.114;6.542;2023-01-05T08:52:18;11.90;99.90
1405;DHT22;697;51.114;6.542;2023-01-05T08:54:44;11.90;99.90
1405;DHT22;697;51.114;6.542;2023-01-05T08:57:12;11.90;99.90
1405;DHT22;697;51.114;6.542;2023-01-05T08:59:39;11.90;99.90
1405;DHT22;697;51.114;6.542;2023-01-05T09:02:07;12.00;99.90
1405;DHT22;697;51.114;6.542;2023-01-05T09:04:35;12.00;99.90
1405;DHT22;697;51.114;6.542;2023-01-05T09:07:02;12.00;99.90
1405;DHT22;697;51.114;6.542;2023-01-05T09:09:29;12.00;99.90
1405;DHT22;697;51.114;6.542;2023-01-05T09:11:55;11.90;99.90
1405;DHT22;697;51.114;6.542;2023-01-05T09:14:23;12.00;99.90
1405;DHT22;697;51.114;6.542;2023-01-05T09:16:50;12.00;99.90
1405;DHT22;697;51.114;6.542;2023-01-05T09:19:17;12.00;99.90
1405;DHT22;697;51.114;6.542;2023-01-05T09:21:43;12.00;99.90
1405;DHT22;697;51.114;6.542;2023-01-05T09:24:11;12.10;99.90
1405;DHT22;697;51.114;6.542;2023-01-05T09:26:38;12.10;99.90
1405;DHT22;697;51.114;6.542;2023-01-05T09:29:04;12.00;99.90
1405;DHT22;697;51.114;6.542;2023-01-05T09:31:32;12.00;99.90
1405;DHT22;697;51.114;6.542;2023-01-05T09:33:59;12.00;99.90
1405;DHT22;697;51.114;6.542;2023-01-05T09:36:26;12.00;99.90
1405;DHT22;697;51.114;6.542;2023-01-05T09:38:53;12.00;99.90
1405;DHT22;697;51.114;6.542;2023-01-05T09:41:22;12.00;99.90
1405;DHT22;697;51.114;6.542;2023-01-05T09:43:53;12.00;99.90
1405;DHT22;697;51.114;6.542;2023-01-05T09:46:24;12.00;99.90
1405;DHT22;697;51.114;6.542;2023-01-05T09:48:57;12.00;99.90
1405;DHT22;697;51.114;6.542;2023-01-05T09:51:24;12.10;99.90
1405;DHT22;697;51.114;6.542;2023-01-05T09:53:51;12.20;99.90
1405;DHT22;697;51.114;6.542;2023-01-05T09:56:26;12.30;99.90
1405;DHT22;697;51.114;6.542;2023-01-05T09:58:57;12.30;99.90
1405;DHT22;697;51.114;6.542;2023-01-05T10:01:30;12.40;99.90
1405;DHT22;697;51.114;6.542;2023-01-05T10:04:02;12.50;99.90
1405;DHT22;697;51.114;6.542;2023-01-05T10:06:33;12.50;99.90
1405;DHT22;697;51.114;6.542;2023-01-05T10:09:03;12.50;99.90
1405;DHT22;697;51.114;6.542;2023-01-05T10:11:37;12.50;99.90
1405;DHT22;697;51.114;6.542;2023-01-05T10:14:27;12.50;99.90
1405;DHT22;697;51.114;6.542;2023-01-05T10:16:55;12.40;99.90
1405;DHT22;697;51.114;6.542;2023-01-05T10:19:24;12.50;99.90
1405;DHT22;697;51.114;6.542;2023-01-05T10:21:57;12.50;99.90
1405;DHT22;697;51.114;6.542;2023-01-05T10:24:30;12.40;99.90
1405;DHT22;697;51.114;6.542;2023-01-05T10:27:03;12.50;99.90
1405;DHT22;697;51.114;6.542;2023-01-05T10:29:37;12.50;99.90
1405;DHT22;697;51.114;6.542;2023-01-05T10:32:13;12.50;99.90
1405;DHT22;697;51.114;6.542;2023-01-05T10:34:56;12.50;99.90
1405;DHT22;697;51.114;6.542;2023-01-05T10:37:51;12.50;99.80
1405;DHT22;697;51.114;6.542;2023-01-05T10:40:27;12.50;99.80
1405;DHT22;697;51.114;6.542;2023-01-05T10:43:17;12.50;99.90
1405;DHT22;697;51.114;6.542;2023-01-05T10:45:47;12.40;99.90
1405;DHT22;697;51.114;6.542;2023-01-05T10:48:16;12.50;99.90
1405;DHT22;697;51.114;6.542;2023-01-05T10:50:46;12.50;99.90
1405;DHT22;697;51.114;6.542;2023-01-05T10:53:16;12.50;99.40
1405;DHT22;697;51.114;6.542;2023-01-05T10:55:50;12.60;99.20
1405;DHT22;697;51.114;6.542;2023-01-05T10:58:23;12.60;99.40
1405;DHT22;697;51.114;6.542;2023-01-05T11:00:51;12.70;99.40
1405;DHT22;697;51.114;6.542;2023-01-05T11:03:32;12.80;99.00
1405;DHT22;697;51.114;6.542;2023-01-05T11:06:01;12.70;98.60
1405;DHT22;697;51.114;6.542;2023-01-05T11:08:30;12.80;98.90
1405;DHT22;697;51.114;6.542;2023-01-05T11:10:58;12.80;98.70
1405;DHT22;697;51.114;6.542;2023-01-05T11:13:30;12.80;98.30
1405;DHT22;697;51.114;6.542;2023-01-05T11:16:01;12.80;98.60
1405;DHT22;697;51.114;6.542;2023-01-05T11:18:32;12.80;98.60
1405;DHT22;697;51.114;6.542;2023-01-05T11:21:05;12.80;98.50
1405;DHT22;697;51.114;6.542;2023-01-05T11:23:34;12.80;98.40
1405;DHT22;697;51.114;6.542;2023-01-05T11:26:20;12.70;98.10
1405;DHT22;697;51.114;6.542;2023-01-05T11:31:42;12.80;98.30
1405;DHT22;697;51.114;6.542;2023-01-05T11:34:16;12.80;98.10
1405;DHT22;697;51.114;6.542;2023-01-05T11:36:53;12.90;97.90
1405;DHT22;697;51.114;6.542;2023-01-05T11:39:27;13.00;98.40
1405;DHT22;697;51.114;6.542;2023-01-05T11:42:10;12.90;98.00
1405;DHT22;697;51.114;6.542;2023-01-05T11:44:39;12.90;98.40
1405;DHT22;697;51.114;6.542;2023-01-05T11:47:08;13.10;98.40
1405;DHT22;697;51.114;6.542;2023-01-05T11:49:36;13.20;98.60
1405;DHT22;697;51.114;6.542;2023-01-05T11:52:24;13.40;97.60
1405;DHT22;697;51.114;6.542;2023-01-05T11:54:50;13.40;96.70
1405;DHT22;697;51.114;6.542;2023-01-05T11:57:19;13.50;97.00
1405;DHT22;697;51.114;6.542;2023-01-05T11:59:47;13.50;96.90
1405;DHT22;697;51.114;6.542;2023-01-05T12:02:40;13.60;96.70
1405;DHT22;697;51.114;6.542;2023-01-05T12:05:26;13.60;96.10
1405;DHT22;697;51.114;6.542;2023-01-05T12:08:00;13.60;96.00
1405;DHT22;697;51.114;6.542;2023-01-05T12:10:59;13.60;95.90
1405;DHT22;697;51.114;6.542;2023-01-05T12:13:53;13.60;96.30
1405;DHT22;697;51.114;6.542;2023-01-05T12:16:36;13.40;96.00
1405;DHT22;697;51.114;6.542;2023-01-05T12:19:21;13.30;96.60
1405;DHT22;697;51.114;6.542;2023-01-05T12:22:04;13.30;96.80
1405;DHT22;697;51.114;6.542;2023-01-05T12:24:48;13.20;96.90
1405;DHT22;697;51.114;6.542;2023-01-05T12:27:31;13.00;97.20
1405;DHT22;697;51.114;6.542;2023-01-05T12:30:18;13.00;97.40
1405;DHT22;697;51.114;6.542;2023-01-05T12:33:06;13.00;97.30
1405;DHT22;697;51.114;6.542;2023-01-05T12:36:01;13.00;97.00
1405;DHT22;697;51.114;6.542;2023-01-05T12:38:35;13.20;96.90
1405;DHT22;697;51.114;6.542;2023-01-05T12:41:20;13.70;96.10
1405;DHT22;697;51.114;6.542;2023-01-05T12:43:59;13.90;94.00
1405;DHT22;697;51.114;6.542;2023-01-05T12:46:36;13.80;93.60
1405;DHT22;697;51.114;6.542;2023-01-05T12:49:10;13.90;94.10
1405;DHT22;697;51.114;6.542;2023-01-05T12:51:42;13.80;93.70
1405;DHT22;697;51.114;6.542;2023-01-05T12:54:21;13.70;94.20
1405;DHT22;697;51.114;6.542;2023-01-05T12:56:55;13.60;94.20
1405;DHT22;697;51.114;6.542;2023-01-05T12:59:27;13.50;94.40
1405;DHT22;697;51.114;6.542;2023-01-05T13:02:02;13.60;94.90
1405;DHT22;697;51.114;6.542;2023-01-05T13:04:37;13.70;95.10
1405;DHT22;697;51.114;6.542;2023-01-05T13:07:08;13.70;95.40
1405;DHT22;697;51.114;6.542;2023-01-05T13:09:36;13.70;94.90
1405;DHT22;697;51.114;6.542;2023-01-05T13:12:06;13.70;94.90
1405;DHT22;697;51.114;6.542;2023-01-05T13:14:36;13.60;94.30
1405;DHT22;697;51.114;6.542;2023-01-05T13:17:10;13.50;94.30
1405;DHT22;697;51.114;6.542;2023-01-05T13:19:43;13.50;94.70
1405;DHT22;697;51.114;6.542;2023-01-05T13:22:18;13.50;94.60
1405;DHT22;697;51.114;6.542;2023-01-05T13:24:50;13.40;94.30
1405;DHT22;697;51.114;6.542;2023-01-05T13:27:19;13.30;94.70
1405;DHT22;697;51.114;6.542;2023-01-05T13:29:48;13.30;94.40
1405;DHT22;697;51.114;6.542;2023-01-05T13:32:24;13.30;94.50
1405;DHT22;697;51.114;6.542;2023-01-05T13:38:30;13.20;94.80
1405;DHT22;697;51.114;6.542;2023-01-05T13:41:22;13.20;95.10
1405;DHT22;697;51.114;6.542;2023-01-05T13:44:20;13.00;95.20
1405;DHT22;697;51.114;6.542;2023-01-05T13:47:19;12.90;95.80
1405;DHT22;697;51.114;6.542;2023-01-05T13:50:02;12.90;96.20
1405;DHT22;697;51.114;6.542;2023-01-05T13:52:55;12.90;96.50
1405;DHT22;697;51.114;6.542;2023-01-05T13:55:25;12.90;96.50
1405;DHT22;697;51.114;6.542;2023-01-05T13:57:53;12.90;96.70
1405;DHT22;697;51.114;6.542;2023-01-05T14:00:25;12.90;97.10
1405;DHT22;697;51.114;6.542;2023-01-05T14:02:59;13.00;97.00
1405;DHT22;697;51.114;6.542;2023-01-05T14:05:33;13.00;97.00
1405;DHT22;697;51.114;6.542;2023-01-05T14:08:04;13.10;97.10
1405;DHT22;697;51.114;6.542;2023-01-05T14:10:39;13.10;97.10
1405;DHT22;697;51.114;6.542;2023-01-05T14:13:39;13.20;97.10
1405;DHT22;697;51.114;6.542;2023-01-05T14:19:14;13.30;97.10
1405;DHT22;697;51.114;6.542;2023-01-05T14:24:46;13.40;96.80
1405;DHT22;697;51.114;6.542;2023-01-05T14:27:14;13.50;96.90
1405;DHT22;697;51.114;6.542;2023-01-05T14:32:53;13.60;97.10
1405;DHT22;697;51.114;6.542;2023-01-05T14:35:28;13.60;96.90
1405;DHT22;697;51.114;6.542;2023-01-05T14:37:58;13.60;97.00
1405;DHT22;697;51.114;6.542;2023-01-05T14:40:36;13.60;97.00
1405;DHT22;697;51.114;6.542;2023-01-05T14:43:06;13.70;96.90
1405;DHT22;697;51.114;6.542;2023-01-05T14:45:56;13.60;96.90
1405;DHT22;697;51.114;6.542;2023-01-05T14:48:27;13.40;97.00
1405;DHT22;697;51.114;6.542;2023-01-05T14:51:12;13.50;97.40
1405;DHT22;697;51.114;6.542;2023-01-05T14:53:43;13.40;97.60
1405;DHT22;697;51.114;6.542;2023-01-05T14:56:18;13.30;97.60
1405;DHT22;697;51.114;6.542;2023-01-05T14:59:03;13.30;97.60
1405;DHT22;697;51.114;6.542;2023-01-05T15:01:36;13.30;97.80
1405;DHT22;697;51.114;6.542;2023-01-05T15:04:06;13.20;97.90
1405;DHT22;697;51.114;6.542;2023-01-05T15:06:58;13.20;98.30
1405;DHT22;697;51.114;6.542;2023-01-05T15:09:39;13.10;98.00
1405;DHT22;697;51.114;6.542;2023-01-05T15:12:34;13.00;98.20
1405;DHT22;697;51.114;6.542;2023-01-05T15:15:23;13.00;98.40
1405;DHT22;697;51.114;6.542;2023-01-05T15:18:11;13.00;98.60
1405;DHT22;697;51.114;6.542;2023-01-05T15:21:06;13.00;98.60
1405;DHT22;697;51.114;6.542;2023-01-05T15:23:57;13.00;98.70
1405;DHT22;697;51.114;6.542;2023-01-05T15:26:41;13.10;98.50
1405;DHT22;697;51.114;6.542;2023-01-05T15:32:13;13.10;98.60
1405;DHT22;697;51.114;6.542;2023-01-05T15:34:44;13.10;98.60
1405;DHT22;697;51.114;6.542;2023-01-05T15:37:16;13.10;98.60
1405;DHT22;697;51.114;6.542;2023-01-05T15:39:48;13.20;98.60
1405;DHT22;697;51.114;6.542;2023-01-05T15:42:18;13.20;98.60
1405;DHT22;697;51.114;6.542;2023-01-05T15:44:47;13.10;98.60
1405;DHT22;697;51.114;6.542;2023-01-05T15:47:16;13.10;98.90
1405;DHT22;697;51.114;6.542;2023-01-05T15:49:44;13.10;99.10
1405;DHT22;697;51.114;6.542;2023-01-05T15:52:23;13.00;99.10
1405;DHT22;697;51.114;6.542;2023-01-05T15:54:59;13.10;99.40
1405;DHT22;697;51.114;6.542;2023-01-05T15:57:26;13.00;99.70
1405;DHT22;697;51.114;6.542;2023-01-05T15:59:54;13.00;99.80
1405;DHT22;697;51.114;6.542;2023-01-05T16:02:22;13.00;99.90
1405;DHT22;697;51.114;6.542;2023-01-05T16:05:08;12.90;99.90
1405;DHT22;697;51.114;6.542;2023-01-05T16:07:40;12.80;99.90
1405;DHT22;697;51.114;6.542;2023-01-05T16:10:17;12.80;99.90
1405;DHT22;697;51.114;6.542;2023-01-05T16:12:45;12.70;99.90
1405;DHT22;697;51.114;6.542;2023-01-05T16:15:15;12.60;99.90
1405;DHT22;697;51.114;6.542;2023-01-05T16:17:44;12.50;99.90
1405;DHT22;697;51.114;6.542;2023-01-05T16:20:13;12.40;99.90
1405;DHT22;697;51.114;6.542;2023-01-05T16:22:45;12.40;99.90
1405;DHT22;697;51.114;6.542;2023-01-05T16:25:18;12.40;99.90
1405;DHT22;697;51.114;6.542;2023-01-05T16:27:48;12.30;99.90
1405;DHT22;697;51.114;6.542;2023-01-05T16:30:27;12.30;99.90
1405;DHT22;697;51.114;6.542;2023-01-05T16:32:55;12.20;99.90
1405;DHT22;697;51.114;6.542;2023-01-05T16:35:31;12.10;99.90
1405;DHT22;697;51.114;6.542;2023-01-05T16:38:04;12.10;99.90
1405;DHT22;697;51.114;6.542;2023-01-05T16:40:33;12.10;99.90
1405;DHT22;697;51.114;6.542;2023-01-05T16:43:00;12.00;99.90
1405;DHT22;697;51.114;6.542;2023-01-05T16:45:32;12.10;99.90
1405;DHT22;697;51.114;6.542;2023-01-05T16:47:59;12.10;99.90
1405;DHT22;697;51.114;6.542;2023-01-05T16:50:52;12.20;99.90
1405;DHT22;697;51.114;6.542;2023-01-05T16:53:20;12.20;99.90
1405;DHT22;697;51.114;6.542;2023-01-05T16:55:49;12.20;99.90
1405;DHT22;697;51.114;6.542;2023-01-05T16:58:34;12.30;99.90
1405;DHT22;697;51.114;6.542;2023-01-05T17:01:22;12.30;99.90
1405;DHT22;697;51.114;6.542;2023-01-05T17:03:49;12.30;99.90
1405;DHT22;697;51.114;6.542;2023-01-05T17:06:34;12.30;99.90
1405;DHT22;697;51.114;6.542;2023-01-05T17:09:01;12.40;99.90